Flight Track Log - Related Links

Times and Time Zones

All times are in EDT time to prevent confusion due to time zone crossing. See the RPA3275 flight status page for this flight to view local times or setup timezone preferences in your user account.

Time Position Orientation Groundspeed Altitude Reporting Facility
EDT Latitude Longitude Course Direction KTS MPH feet Rate Location/Type
Sun 09:22:23 AM 39.8833 -75.2167 270° West 146 168 600  Level Philadelphia TRACON
Sun 09:23:11 AM 39.9000 -75.1833 57° Northeast 175 201 2,000 1,750 Climbing Philadelphia TRACON
Sun 09:23:59 AM 39.9167 -75.1333 66° East 245 282 3,400 2,444 Climbing Philadelphia TRACON
Sun 09:24:00 AM 39.9000 -75.5376 270° West  Level FlightAware Approximate
Sun 09:24:59 AM 39.9667 -75.0833 37° Northeast 276 318 6,400  Level Philadelphia TRACON
Sun 09:25:00 AM 39.9103 -75.6412 288° West  Level FlightAware Approximate
Sun 09:26:00 AM 39.9038 -75.7439 258° West  Level FlightAware Approximate
Sun 09:26:23 AM 39.9833 -75.2167 279° West 280 322 10,000  Level Philadelphia TRACON
Sun 09:27:00 AM 39.9001 -75.8491 270° West  Level FlightAware Approximate
Sun 09:27:11 AM 39.9667 -75.3000 255° West 312 359 10,000  Level Philadelphia TRACON
Sun 09:28:28 AM 39.9503 -75.4364 261° West 315 362 10,000 438 Level New York Center
Sun 09:29:28 AM 39.9361 -75.5331 259° West 310 357 11,000 1,934 Climbing New York Center
Sun 09:30:29 AM 39.9186 -75.6564 260° West 315 362 13,900 1,983 Climbing New York Center
Sun 09:31:29 AM 39.9161 -75.7617 268° West 315 362 15,000 559 Climbing New York Center
Sun 09:32:27 AM 39.9294 -75.8900 278° West 327 376 15,000 1,000 Level New York Center
Sun 09:33:29 AM 39.9456 -75.9967 281° West 333 383 17,000 2,033 Climbing New York Center
Sun 09:34:28 AM 39.9628 -76.1253 280° West 338 389 19,100 2,118 Climbing New York Center
Sun 09:35:28 AM 39.9717 -76.2481 275° West 338 389 21,200 1,983 Climbing New York Center
Sun 09:36:29 AM 39.9867 -76.3739 279° West 343 395 23,100 1,785 Climbing New York Center
Sun 09:37:29 AM 40.0033 -76.5053 279° West 358 412 24,800 1,563 Climbing New York Center
Sun 09:38:28 AM 40.0156 -76.6392 277° West 369 425 26,200 1,300 Climbing New York Center
Sun 09:39:29 AM 40.0294 -76.7758 278° West 374 430 27,400 1,240 Climbing New York Center
Sun 09:40:29 AM 40.0453 -76.9156 278° West 380 437 28,700 1,210 Climbing New York Center
Sun 09:41:28 AM 40.0586 -77.0578 277° West 391 450 29,800 1,068 Climbing New York Center
Sun 09:42:27 AM 40.0736 -77.2031 278° West 397 457 30,800 1,100 Climbing New York Center
Sun 09:43:28 AM 40.0883 -77.3536 277° West 409 471 32,000 365 Climbing New York Center
Sun 09:45:44 AM 40.1217 -77.6697 278° West 409 471 32,000  Level Cleveland Center
Sun 09:46:44 AM 40.1356 -77.8131 277° West 409 471 32,000  Level Cleveland Center
Sun 09:47:44 AM 40.1375 -77.9814 271° West 409 471 32,000  Level Cleveland Center
Sun 09:48:44 AM 40.1386 -78.1281 271° West 409 471 32,000  Level Cleveland Center
Sun 09:49:44 AM 40.1375 -78.2747 269° West 409 471 32,000  Level Cleveland Center
Sun 09:50:44 AM 40.1406 -78.4214 272° West 409 471 32,000  Level Cleveland Center
Sun 09:51:44 AM 40.1411 -78.5706 270° West 409 471 32,000  Level Cleveland Center
Sun 09:52:44 AM 40.1561 -78.7169 278° West 404 465 32,000  Level Cleveland Center
Sun 09:53:44 AM 40.1936 -78.8544 290° West 396 456 32,000  Level Cleveland Center
Sun 09:54:44 AM 40.2292 -78.9950 288° West 401 461 32,000  Level Cleveland Center
Sun 09:55:44 AM 40.2664 -79.1356 289° West 401 461 32,000  Level Cleveland Center
Sun 09:56:44 AM 40.3036 -79.2736 290° West 406 467 32,000  Level Cleveland Center
Sun 09:57:44 AM 40.3383 -79.3983 290° West 406 467 32,000  Level Cleveland Center
Sun 09:58:44 AM 40.3750 -79.5419 289° West 406 467 32,000  Level Cleveland Center
Sun 09:59:44 AM 40.4097 -79.6806 288° West 406 467 32,000  Level Cleveland Center
Sun 10:00:44 AM 40.4461 -79.8192 289° West 406 467 32,000  Level Cleveland Center
Sun 10:01:44 AM 40.4825 -79.9633 288° West 401 461 32,000  Level Cleveland Center
Sun 10:02:44 AM 40.5186 -80.1214 287° West 407 468 32,000  Level Cleveland Center
Sun 10:03:44 AM 40.5544 -80.2633 288° West 412 474 32,000  Level Cleveland Center
Sun 10:04:44 AM 40.5881 -80.3861 290° West 412 474 32,000 -1,000 Level Cleveland Center
Sun 10:05:44 AM 40.6194 -80.5339 286° West 412 474 30,000 -1,000 Descending Cleveland Center
Sun 10:06:44 AM 40.6528 -80.6733 288° West 412 474 30,000  Level Cleveland Center
Sun 10:07:44 AM 40.7131 -80.8158 299° West 406 467 30,000  Level Cleveland Center
Sun 10:08:44 AM 40.7733 -80.9367 303° West 406 467 30,000  Level Cleveland Center
Sun 10:09:44 AM 40.8311 -81.0689 300° West 406 467 30,000  Level Cleveland Center
Sun 10:10:44 AM 40.8931 -81.1928 304° West 406 467 30,000  Level Cleveland Center
Sun 10:11:44 AM 40.9528 -81.3172 302° West 406 467 30,000  Level Cleveland Center
Sun 10:12:44 AM 41.0144 -81.4472 302° West 411 473 30,000 -400 Level Cleveland Center
Sun 10:13:44 AM 41.0739 -81.5719 302° West 411 473 29,200 -900 Descending Cleveland Center
Sun 10:14:44 AM 41.1394 -81.6942 305° West 411 473 28,200 -1,000 Descending Cleveland Center
Sun 10:15:44 AM 41.1967 -81.8167 302° West 411 473 27,200 -1,000 Descending Cleveland Center
Sun 10:16:44 AM 41.2536 -81.9392 302° West 400 460 26,200 -1,100 Descending Cleveland Center
Sun 10:17:44 AM 41.3125 -82.0567 304° West 400 460 25,000 -1,500 Descending Cleveland Center
Sun 10:18:44 AM 41.3653 -82.1767 300° West 390 449 23,200 -1,900 Descending Cleveland Center
Sun 10:19:44 AM 41.4283 -82.2808 309° West 379 436 21,200 -1,950 Descending Cleveland Center
Sun 10:20:44 AM 41.4892 -82.3850 308° West 364 419 19,300 -1,850 Descending Cleveland Center
Sun 10:21:44 AM 41.5503 -82.4839 310° West 359 413 17,500 -1,800 Descending Cleveland Center
Sun 10:22:24 AM 41.5908 -82.5489 310° West 341 392 16,300 -1,900 Descending Cleveland Center
Sun 10:22:44 AM 41.6069 -82.5853 301° West 347 399 15,600 -1,823 Descending Cleveland Center
Sun 10:23:43 AM 41.6636 -82.6789 309° West 331 381 13,900 -1,700 Descending Cleveland Center
Sun 10:24:44 AM 41.7181 -82.7697 309° West 324 373 12,200 -942 Descending Cleveland Center
Sun 10:25:44 AM 41.7853 -82.8556 316° Northwest 325 374 12,000 -94 Descending Cleveland Center
Sun 10:26:52 AM 41.8606 -82.9447 319° Northwest 323 372 12,000  Level Cleveland Center
Sun 10:27:44 AM 41.9197 -83.0139 319° Northwest 320 368 12,000  Level Cleveland Center
Sun 10:28:41 AM 41.9828 -83.0861 320° Northwest 294 338 12,000  Level Cleveland Center
Sun 10:29:42 AM 42.0356 -83.1497 318° Northwest 250 288 12,000  Level Cleveland Center
Sun 10:30:44 AM 42.0822 -83.2047 319° Northwest 249 287 12,000  Level Cleveland Center
Sun 10:30:44 AM 42.0822 -83.2047 319° Northwest 229 264 12,000 -700 Level Cleveland Center
Sun 10:31:44 AM 42.1356 -83.2350 337° Northwest 225 259 11,300 -942 Descending Cleveland Center
Sun 10:32:45 AM 42.2064 -83.2378 358° North 239 275 10,100 -1,230 Descending Cleveland Center
Sun 10:33:46 AM 42.2636 -83.1981 27° Northeast 234 269 8,800 -1,230 Descending Cleveland Center
Sun 10:34:47 AM 42.3150 -83.1469 36° Northeast 229 264 7,600 -1,230 Descending Cleveland Center
Sun 10:35:48 AM 42.3678 -83.1125 26° Northeast 226 260 6,300 -1,377 Descending Cleveland Center
Sun 10:36:49 AM 42.3786 -83.1833 282° West 201 231 4,800 -1,475 Descending Cleveland Center

Login

Don't have an account? Register now (free) for customized features, flight alerts, and more!